Time;durP1;ratioP1;P1;durP2;ratioP2;P2;SDS_P1;SDS_P2;PMS_P1;PMS_P2;Temp;Humidity;BMP_temperature;BMP_pressure;BME280_temperature;BME280_humidity;BME280_pressure;Samples;Min_cycle;Max_cycle;Signal;HPM_P1;HPM_P2
2021/11/02 00:00:25;;;;;;;;;;;;;;;20.57;39.96;94370.25;1048897;28;1113;-63
2021/11/02 00:00:56;;;;;;;;;;;;;;;20.58;40.02;94374.44;1047317;28;1086;-62
2021/11/02 00:01:27;;;;;;;;;;;;;;;20.60;39.82;94367.03;1046966;28;1967;-63
2021/11/02 00:01:57;;;;;;;;;;;;;;;20.59;40.04;94375.97;1046455;28;1261;-61
2021/11/02 00:02:27;;;;;;;;;;;;;;;20.58;40.16;94371.81;1048142;28;1102;-61
2021/11/02 00:02:58;;;;;;;;;;;;;;;20.59;39.97;94373.34;1048481;28;1154;-62
2021/11/02 00:03:28;;;;;;;;;;;;;;;20.58;39.98;94371.81;1048478;28;1177;-61
2021/11/02 00:03:59;;;;;;;;;;;;;;;20.57;39.97;94372.88;1052094;28;1914;-60
2021/11/02 00:04:29;;;;;;;;;;;;;;;20.57;40.10;94372.09;1049058;28;1118;-61
2021/11/02 00:05:00;;;;;;;;;;;;;;;20.57;40.12;94370.25;1050299;28;1416;-62
2021/11/02 00:05:31;;;;;;;;;;;;;;;20.56;40.02;94368.72;1051822;28;1023;-61
2021/11/02 00:06:02;;;;;;;;;;;;;;;20.56;40.24;94376.63;1050197;28;1075;-62
2021/11/02 00:06:33;;;;;;;;;;;;;;;20.55;40.15;94372.41;1045340;28;1991;-62
2021/11/02 00:07:04;;;;;;;;;;;;;;;20.56;40.15;94367.94;1045755;28;1132;-61
2021/11/02 00:07:35;;;;;;;;;;;;;;;20.56;40.03;94373.97;1048202;28;1100;-62
2021/11/02 00:08:05;;;;;;;;;;;;;;;20.55;40.19;94375.03;1044561;28;1315;-61
2021/11/02 00:08:36;;;;;;;;;;;;;;;20.56;40.07;94371.34;1047020;28;1287;-62
2021/11/02 00:09:07;;;;;;;;;;;;;;;20.57;39.91;94369.47;1047303;28;1097;-60
2021/11/02 00:09:45;;;;;;;;;;;;;;;20.57;39.73;94380.00;1048220;28;1162;-62
2021/11/02 00:10:16;;;;;;;;;;;;;;;20.59;39.91;94368.09;1045824;28;1032;-60
2021/11/02 00:10:46;;;;;;;;;;;;;;;20.59;39.63;94375.19;1047942;28;1020;-62
2021/11/02 00:11:17;;;;;;;;;;;;;;;20.59;39.97;94380.47;1047552;28;2043;-62
2021/11/02 00:11:48;;;;;;;;;;;;;;;20.60;39.72;94374.13;1048280;28;1568;-61
2021/11/02 00:12:18;;;;;;;;;;;;;;;20.59;40.11;94373.34;1048417;28;1220;-59
2021/11/02 00:12:49;;;;;;;;;;;;;;;20.58;39.88;94371.81;1047542;28;1543;-62
2021/11/02 00:13:20;;;;;;;;;;;;;;;20.58;39.59;94371.81;1048302;28;1067;-59
2021/11/02 00:13:52;;;;;;;;;;;;;;;20.58;39.89;94371.03;1041633;28;1585;-62
2021/11/02 00:14:26;;;;;;;;;;;;;;;20.58;39.89;94376.28;1040040;28;1541;-62
2021/11/02 00:14:56;;;;;;;;;;;;;;;20.58;39.93;94376.28;1036516;28;1633;-61
2021/11/02 00:15:28;;;;;;;;;;;;;;;20.56;40.00;94373.97;1040775;28;1115;-62
2021/11/02 00:16:00;;;;;;;;;;;;;;;20.56;39.97;94376.63;1039710;28;1090;-61
2021/11/02 00:16:31;;;;;;;;;;;;;;;20.55;39.96;94375.03;1044888;28;1194;-62
2021/11/02 00:17:16;;;;;;;;;;;;;;;20.55;40.05;94372.41;1041337;28;1987;-58
2021/11/02 00:17:48;;;;;;;;;;;;;;;20.55;39.82;94374.25;1044046;28;1421;-62
2021/11/02 00:18:19;;;;;;;;;;;;;;;20.55;39.88;94367.16;1044259;28;1568;-63
2021/11/02 00:19:52;;;;;;;;;;;;;;;20.53;39.92;94371.94;1044007;28;1388;-62
2021/11/02 00:20:22;;;;;;;;;;;;;;;20.54;40.02;94375.34;1046791;28;1117;-62
2021/11/02 00:20:59;;;;;;;;;;;;;;;20.52;40.16;94373.03;1052146;28;1055;-62
2021/11/02 00:21:33;;;;;;;;;;;;;;;20.52;39.99;94367.00;1051768;28;1886;-63
2021/11/02 00:22:15;;;;;;;;;;;;;;;20.51;40.00;94371.47;1044496;28;1951;-62
2021/11/02 00:22:54;;;;;;;;;;;;;;;20.50;40.08;94371.78;1048360;28;1042;-60
2021/11/02 00:23:25;;;;;;;;;;;;;;;20.51;39.95;94368.06;1045539;28;2006;-59
2021/11/02 00:24:08;;;;;;;;;;;;;;;20.50;39.87;94375.19;1047254;28;1906;-62
2021/11/02 00:24:43;;;;;;;;;;;;;;;20.50;40.15;94367.31;1044639;28;987;-59
2021/11/02 00:25:14;;;;;;;;;;;;;;;20.49;40.06;94376.28;1047852;28;1375;-61
2021/11/02 00:25:44;;;;;;;;;;;;;;;20.49;40.01;94378.91;1047542;28;1679;-59
2021/11/02 00:26:15;;;;;;;;;;;;;;;20.49;40.23;94373.63;1045266;28;1035;-61
2021/11/02 00:26:45;;;;;;;;;;;;;;;20.48;40.18;94374.72;1046051;28;1638;-62
2021/11/02 00:27:16;;;;;;;;;;;;;;;20.50;40.00;94375.19;1047018;28;2094;-61
2021/11/02 00:27:46;;;;;;;;;;;;;;;20.49;40.08;94373.63;1044308;28;1541;-62
2021/11/02 00:28:16;;;;;;;;;;;;;;;20.49;39.90;94373.63;1046691;28;1071;-62
2021/11/02 00:28:46;;;;;;;;;;;;;;;20.49;40.10;94368.38;1048344;28;1115;-62
2021/11/02 00:29:17;;;;;;;;;;;;;;;20.48;40.00;94374.72;1048387;28;1119;-61
2021/11/02 00:29:47;;;;;;;;;;;;;;;20.49;40.07;94378.13;1049070;28;969;-61
2021/11/02 00:30:18;;;;;;;;;;;;;;;20.47;40.26;94375.78;1048385;28;988;-61
2021/11/02 00:30:49;;;;;;;;;;;;;;;20.47;39.78;94375.78;1048228;28;1091;-62
2021/11/02 00:31:19;;;;;;;;;;;;;;;20.48;39.94;94372.09;1041568;28;2270;-62
2021/11/02 00:31:50;;;;;;;;;;;;;;;20.48;40.21;94371.31;1044130;28;1723;-61
2021/11/02 00:32:20;;;;;;;;;;;;;;;20.50;39.85;94377.06;1043597;28;1966;-61
2021/11/02 00:32:51;;;;;;;;;;;;;;;20.49;39.87;94372.84;1044197;28;1446;-59
2021/11/02 00:33:22;;;;;;;;;;;;;;;20.48;40.15;94369.47;1043800;28;1209;-61
2021/11/02 00:33:52;;;;;;;;;;;;;;;20.48;40.19;94369.47;1042388;28;1425;-60
2021/11/02 00:34:22;;;;;;;;;;;;;;;20.49;40.08;94367.59;1042063;28;1166;-62
2021/11/02 00:34:53;;;;;;;;;;;;;;;20.47;40.20;94364.50;1047553;28;1445;-61
2021/11/02 00:35:24;;;;;;;;;;;;;;;20.46;39.92;94365.59;1051450;28;1274;-62
2021/11/02 00:35:56;;;;;;;;;;;;;;;20.47;39.92;94367.13;1046061;28;1037;-61
2021/11/02 00:36:26;;;;;;;;;;;;;;;20.47;39.88;94359.22;1048149;28;1149;-62
2021/11/02 00:36:57;;;;;;;;;;;;;;;20.46;39.92;94363.72;1048275;28;1040;-61
2021/11/02 00:37:27;;;;;;;;;;;;;;;20.45;40.14;94362.16;1047229;28;2032;-60
2021/11/02 00:37:57;;;;;;;;;;;;;;;20.47;40.16;94364.50;1048597;28;1100;-60
2021/11/02 00:38:28;;;;;;;;;;;;;;;20.46;39.86;94363.72;1048220;28;1185;-62
2021/11/02 00:38:58;;;;;;;;;;;;;;;20.46;39.94;94358.47;1048272;28;1088;-60
2021/11/02 00:39:28;;;;;;;;;;;;;;;20.46;40.19;94363.72;1048399;28;1166;-61
2021/11/02 00:40:00;;;;;;;;;;;;;;;20.45;39.89;94367.44;1048343;28;1150;-62
2021/11/02 00:40:30;;;;;;;;;;;;;;;20.45;39.98;94361.38;1051788;28;1150;-62
2021/11/02 00:41:01;;;;;;;;;;;;;;;20.46;39.59;94366.38;1051022;28;1013;-61
2021/11/02 00:41:31;;;;;;;;;;;;;;;20.46;40.08;94363.72;1050847;28;1141;-60
2021/11/02 00:42:02;;;;;;;;;;;;;;;20.45;40.14;94361.38;1047690;28;1260;-62
2021/11/02 00:42:50;;;;;;;;;;;;;;;20.45;40.11;94366.66;1044815;28;2000;-62
2021/11/02 00:43:23;;;;;;;;;;;;;;;20.44;39.96;94365.13;1048198;28;1091;-61
2021/11/02 00:43:55;;;;;;;;;;;;;;;20.44;39.97;94360.63;1045359;28;2044;-61
2021/11/02 00:44:25;;;;;;;;;;;;;;;20.43;40.07;94363.53;1046637;28;1138;-61
2021/11/02 00:44:56;;;;;;;;;;;;;;;20.43;40.05;94364.34;1048505;28;1068;-61
2021/11/02 00:45:36;;;;;;;;;;;;;;;20.41;40.21;94361.22;1048937;28;1055;-62
2021/11/02 00:46:06;;;;;;;;;;;;;;;20.41;40.28;94360.44;1051182;28;1150;-62
2021/11/02 00:46:37;;;;;;;;;;;;;;;20.40;40.12;94362.31;1052429;28;976;-62
2021/11/02 00:47:07;;;;;;;;;;;;;;;20.40;40.02;94359.69;1052007;28;1107;-62
2021/11/02 00:47:38;;;;;;;;;;;;;;;20.40;39.86;94359.69;1047789;28;2062;-62
2021/11/02 00:48:11;;;;;;;;;;;;;;;20.39;40.14;94360.75;1046013;28;1365;-61
2021/11/02 00:48:42;;;;;;;;;;;;;;;20.40;40.05;94359.69;1048287;28;1005;-61
2021/11/02 00:49:17;;;;;;;;;;;;;;;20.40;39.90;94357.06;1048328;28;1157;-62
2021/11/02 00:49:48;;;;;;;;;;;;;;;20.41;39.94;94357.81;1048149;28;1057;-61
2021/11/02 00:50:18;;;;;;;;;;;;;;;20.42;40.06;94362.78;1044157;28;1539;-62
2021/11/02 00:50:48;;;;;;;;;;;;;;;20.41;40.07;94355.97;1043998;28;1130;-59
2021/11/02 00:51:19;;;;;;;;;;;;;;;20.41;40.13;94360.44;1043389;28;1438;-61
2021/11/02 00:51:49;;;;;;;;;;;;;;;20.40;40.12;94354.44;1043969;28;1114;-60
2021/11/02 00:52:19;;;;;;;;;;;;;;;20.41;40.06;94355.97;1046317;28;1993;-61
2021/11/02 00:52:49;;;;;;;;;;;;;;;20.41;40.06;94361.22;1045361;28;1604;-60
2021/11/02 00:53:20;;;;;;;;;;;;;;;20.41;40.07;94363.84;1049008;28;1202;-59
2021/11/02 00:53:50;;;;;;;;;;;;;;;20.40;39.93;94358.91;1048201;28;1088;-62
2021/11/02 00:54:21;;;;;;;;;;;;;;;20.40;39.98;94359.69;1047637;28;1262;-63
2021/11/02 00:54:51;;;;;;;;;;;;;;;20.41;39.91;94357.81;1052433;28;1060;-62
2021/11/02 00:55:22;;;;;;;;;;;;;;;20.41;40.06;94360.44;1052461;28;1153;-62
2021/11/02 00:55:52;;;;;;;;;;;;;;;20.39;40.17;94362.59;1049591;28;1924;-63
2021/11/02 00:56:22;;;;;;;;;;;;;;;20.40;39.95;94362.31;1052215;28;1146;-61
2021/11/02 00:56:53;;;;;;;;;;;;;;;20.39;39.91;94363.38;1048529;28;1092;-59
2021/11/02 00:57:23;;;;;;;;;;;;;;;20.38;39.99;94361.81;1047005;28;1938;-61
2021/11/02 00:57:53;;;;;;;;;;;;;;;20.40;39.73;94361.53;1044177;28;1069;-60
2021/11/02 00:58:26;;;;;;;;;;;;;;;20.41;39.87;94360.44;1044522;28;1131;-61
2021/11/02 00:58:56;;;;;;;;;;;;;;;20.41;40.00;94361.22;1044178;28;1088;-61
2021/11/02 00:59:26;;;;;;;;;;;;;;;20.40;39.99;94359.69;1048110;28;1434;-62
2021/11/02 00:59:56;;;;;;;;;;;;;;;20.40;40.12;94364.16;1048613;28;1454;-61
2021/11/02 01:00:27;;;;;;;;;;;;;;;20.39;40.07;94360.75;1043950;28;1739;-62
2021/11/02 01:00:57;;;;;;;;;;;;;;;20.39;39.93;94366.03;1047867;28;993;-61
2021/11/02 01:01:27;;;;;;;;;;;;;;;20.38;39.95;94356.56;1048832;28;1110;-62
2021/11/02 01:01:58;;;;;;;;;;;;;;;20.38;39.95;94356.56;1048284;28;1315;-62
2021/11/02 01:02:28;;;;;;;;;;;;;;;20.37;40.17;94360.28;1045936;28;1761;-60
2021/11/02 01:02:58;;;;;;;;;;;;;;;20.36;40.11;94358.72;1047069;28;2314;-60
2021/11/02 01:03:29;;;;;;;;;;;;;;;20.35;39.89;94359.03;1049042;28;1219;-61
2021/11/02 01:04:04;;;;;;;;;;;;;;;20.35;40.13;94356.41;1048175;28;1897;-61
2021/11/02 01:04:34;;;;;;;;;;;;;;;20.36;40.02;94352.72;1047026;28;1186;-61
2021/11/02 01:05:05;;;;;;;;;;;;;;;20.36;40.02;94363.22;1048287;28;1193;-61
2021/11/02 01:05:35;;;;;;;;;;;;;;;20.35;40.18;94354.56;1044046;28;1175;-61
2021/11/02 01:06:05;;;;;;;;;;;;;;;20.35;39.97;94359.81;1047837;28;1095;-62
2021/11/02 01:06:36;;;;;;;;;;;;;;;20.35;40.21;94357.19;1048197;28;1201;-61
2021/11/02 01:07:07;;;;;;;;;;;;;;;20.36;40.07;94352.72;1048160;28;1107;-61
2021/11/02 01:07:37;;;;;;;;;;;;;;;20.35;39.96;94349.28;1047216;28;2573;-61
2021/11/02 01:08:07;;;;;;;;;;;;;;;20.35;39.97;94351.91;1048163;28;1071;-61
2021/11/02 01:08:38;;;;;;;;;;;;;;;20.35;40.15;94351.91;1048388;28;1051;-62
2021/11/02 01:09:09;;;;;;;;;;;;;;;20.35;40.10;94351.13;1048181;28;1052;-61
2021/11/02 01:09:39;;;;;;;;;;;;;;;20.35;40.15;94356.41;1048910;28;934;-60
2021/11/02 01:10:15;;;;;;;;;;;;;;;20.35;40.02;94351.13;1048496;28;1005;-62
2021/11/02 01:10:47;;;;;;;;;;;;;;;20.33;39.97;94351.44;1046000;28;1023;-62
2021/11/02 01:11:19;;;;;;;;;;;;;;;20.34;40.15;94353.00;1048544;28;1154;-61
2021/11/02 01:11:49;;;;;;;;;;;;;;;20.34;40.31;94353.00;1047084;28;1682;-63
2021/11/02 01:12:19;;;;;;;;;;;;;;;20.34;40.18;94349.59;1046657;28;1974;-62
2021/11/02 01:12:50;;;;;;;;;;;;;;;20.33;40.09;94348.81;1047963;28;1255;-60
2021/11/02 01:13:21;;;;;;;;;;;;;;;20.34;40.12;94347.72;1048218;28;1189;-62
2021/11/02 01:13:51;;;;;;;;;;;;;;;20.34;40.05;94345.09;1048686;28;1108;-62
2021/11/02 01:14:22;;;;;;;;;;;;;;;20.34;40.06;94345.09;1047539;28;1130;-61
2021/11/02 01:14:52;;;;;;;;;;;;;;;20.34;40.11;94344.34;1048086;28;2386;-62
2021/11/02 01:15:24;;;;;;;;;;;;;;;20.33;39.99;94343.56;1047900;28;1441;-62
2021/11/02 01:15:54;;;;;;;;;;;;;;;20.33;40.27;94343.56;1046051;28;1154;-62
2021/11/02 01:16:25;;;;;;;;;;;;;;;20.33;40.10;94345.41;1048826;28;1165;-61
2021/11/02 01:16:55;;;;;;;;;;;;;;;20.32;39.99;94347.25;1048698;28;1157;-60
2021/11/02 01:17:26;;;;;;;;;;;;;;;20.33;39.96;94348.81;1046419;28;1962;-60
2021/11/02 01:17:56;;;;;;;;;;;;;;;20.33;40.04;94348.03;1046723;28;1121;-61
2021/11/02 01:18:26;;;;;;;;;;;;;;;20.32;40.09;94349.13;1048292;28;1165;-62
2021/11/02 01:18:57;;;;;;;;;;;;;;;20.32;40.27;94347.25;1048843;28;1067;-61
2021/11/02 01:19:27;;;;;;;;;;;;;;;20.31;39.92;94342.31;1048084;28;1548;-61
2021/11/02 01:19:57;;;;;;;;;;;;;;;20.32;40.16;94347.25;1043029;28;1676;-62
2021/11/02 01:20:28;;;;;;;;;;;;;;;20.32;39.98;94338.59;1044035;28;1162;-61
2021/11/02 01:20:59;;;;;;;;;;;;;;;20.31;40.27;94340.47;1043799;28;1150;-62
2021/11/02 01:21:29;;;;;;;;;;;;;;;20.31;40.14;94340.47;1040307;28;1185;-62
2021/11/02 01:21:59;;;;;;;;;;;;;;;20.30;39.98;94338.88;1043938;28;1280;-62
2021/11/02 01:22:30;;;;;;;;;;;;;;;20.31;40.11;94335.19;1046875;28;1997;-61
2021/11/02 01:23:00;;;;;;;;;;;;;;;20.31;40.22;94339.66;1048301;28;1132;-61
2021/11/02 01:23:32;;;;;;;;;;;;;;;20.32;40.05;94334.09;1047172;28;2104;-61
2021/11/02 01:24:03;;;;;;;;;;;;;;;20.31;39.97;94337.81;1047883;28;1914;-61
2021/11/02 01:24:33;;;;;;;;;;;;;;;20.31;40.29;94342.31;1047752;28;1238;-61
2021/11/02 01:25:04;;;;;;;;;;;;;;;20.30;40.04;94333.63;1040355;28;1510;-62
2021/11/02 01:25:34;;;;;;;;;;;;;;;20.31;39.89;94340.47;1048040;28;1253;-61
2021/11/02 01:26:05;;;;;;;;;;;;;;;20.30;40.02;94338.88;1048164;28;1096;-60
2021/11/02 01:26:35;;;;;;;;;;;;;;;20.30;40.18;94341.53;1048491;28;1233;-62
2021/11/02 01:27:06;;;;;;;;;;;;;;;20.30;40.08;94330.25;1047595;28;1097;-62
2021/11/02 01:27:36;;;;;;;;;;;;;;;20.28;40.20;94331.31;1048079;28;1355;-61
2021/11/02 01:28:07;;;;;;;;;;;;;;;20.30;39.90;94328.38;1044457;28;2919;-62
2021/11/02 01:28:37;;;;;;;;;;;;;;;20.30;40.25;94335.50;1044113;28;1125;-61
2021/11/02 01:29:07;;;;;;;;;;;;;;;20.28;40.16;94328.69;1044114;28;1085;-63
2021/11/02 01:29:38;;;;;;;;;;;;;;;20.28;40.08;94330.53;1044432;28;1148;-59
2021/11/02 01:30:09;;;;;;;;;;;;;;;20.28;39.78;94326.03;1046642;28;1119;-61
2021/11/02 01:30:39;;;;;;;;;;;;;;;20.29;39.91;94326.84;1048334;28;860;-62
2021/11/02 01:31:09;;;;;;;;;;;;;;;20.29;40.07;94326.84;1045664;28;1124;-62
2021/11/02 01:31:40;;;;;;;;;;;;;;;20.28;40.02;94330.53;1045214;28;1010;-59
2021/11/02 01:32:10;;;;;;;;;;;;;;;20.29;40.05;94329.47;1046119;28;2053;-61
2021/11/02 01:32:41;;;;;;;;;;;;;;;20.27;40.16;94327.13;1048614;28;1150;-62
2021/11/02 01:33:11;;;;;;;;;;;;;;;20.27;40.08;94329.78;1047225;28;2326;-62
2021/11/02 01:33:41;;;;;;;;;;;;;;;20.27;40.17;94327.13;1048304;28;1259;-61
2021/11/02 01:34:12;;;;;;;;;;;;;;;20.27;39.94;94321.09;1047586;28;1788;-61
2021/11/02 01:34:42;;;;;;;;;;;;;;;20.26;40.08;94328.22;1047127;28;1382;-60
2021/11/02 01:35:13;;;;;;;;;;;;;;;20.27;40.20;94327.13;1048964;28;1080;-59
2021/11/02 01:35:43;;;;;;;;;;;;;;;20.27;40.05;94329.00;1053107;28;1048;-62
2021/11/02 01:36:15;;;;;;;;;;;;;;;20.27;40.17;94323.72;1052896;28;1170;-62
2021/11/02 01:36:45;;;;;;;;;;;;;;;20.27;40.08;94321.09;1051948;28;1651;-62
2021/11/02 01:37:16;;;;;;;;;;;;;;;20.27;40.09;94324.50;1049678;28;1273;-61
2021/11/02 01:37:46;;;;;;;;;;;;;;;20.27;40.21;94321.88;1049708;28;1080;-61
2021/11/02 01:38:20;;;;;;;;;;;;;;;20.27;40.44;94323.72;1049430;28;2103;-61
2021/11/02 01:38:51;;;;;;;;;;;;;;;20.26;40.14;94320.31;1052322;28;1835;-61
2021/11/02 01:39:21;;;;;;;;;;;;;;;20.25;40.21;94318.78;1052725;28;1133;-61
2021/11/02 01:39:52;;;;;;;;;;;;;;;20.26;40.15;94316.91;1049226;28;1938;-61
2021/11/02 01:40:22;;;;;;;;;;;;;;;20.25;39.98;94318.00;1048630;28;1358;-62
2021/11/02 01:40:54;;;;;;;;;;;;;;;20.26;40.17;94322.16;1048662;28;1367;-61
2021/11/02 01:41:26;;;;;;;;;;;;;;;20.25;40.30;94316.16;1049184;28;1130;-61
2021/11/02 01:41:56;;;;;;;;;;;;;;;20.25;40.19;94324.03;1044529;28;1269;-61
2021/11/02 01:42:27;;;;;;;;;;;;;;;20.26;40.21;94322.94;1045507;28;1264;-62
2021/11/02 01:42:57;;;;;;;;;;;;;;;20.27;40.15;94323.72;1044713;28;2094;-62
2021/11/02 01:43:28;;;;;;;;;;;;;;;20.26;39.95;94322.16;1043676;28;1587;-61
2021/11/02 01:43:58;;;;;;;;;;;;;;;20.26;40.05;94322.16;1048461;28;1905;-60
2021/11/02 01:44:29;;;;;;;;;;;;;;;20.27;39.94;94321.09;1048485;28;1192;-61
2021/11/02 01:44:59;;;;;;;;;;;;;;;20.25;40.17;94318.78;1049395;28;1021;-61
2021/11/02 01:45:30;;;;;;;;;;;;;;;20.26;40.06;94324.78;1049005;28;1236;-58
2021/11/02 01:46:01;;;;;;;;;;;;;;;20.25;39.98;94326.69;1046770;28;1595;-61
2021/11/02 01:46:32;;;;;;;;;;;;;;;20.25;40.01;94323.25;1048937;28;1149;-63
2021/11/02 01:47:04;;;;;;;;;;;;;;;20.24;40.24;94319.06;1048976;28;1087;-60
2021/11/02 01:47:36;;;;;;;;;;;;;;;20.25;39.98;94321.41;1049388;28;1201;-61
2021/11/02 01:48:06;;;;;;;;;;;;;;;20.25;39.92;94320.63;1047599;28;2049;-62
2021/11/02 01:48:36;;;;;;;;;;;;;;;20.24;40.02;94319.84;1045527;28;1358;-61
2021/11/02 01:49:07;;;;;;;;;;;;;;;20.23;40.22;94320.16;1047423;28;1781;-62
2021/11/02 01:49:37;;;;;;;;;;;;;;;20.23;40.03;94318.31;1053187;28;1408;-62
2021/11/02 01:50:08;;;;;;;;;;;;;;;20.24;40.03;94316.44;1052432;28;1044;-61
2021/11/02 01:50:38;;;;;;;;;;;;;;;20.23;40.23;94317.53;1053331;28;808;-61
2021/11/02 01:51:08;;;;;;;;;;;;;;;20.24;39.93;94319.06;1048901;28;1092;-60
2021/11/02 01:51:40;;;;;;;;;;;;;;;20.22;40.04;94314.13;1048258;28;854;-62
2021/11/02 01:52:10;;;;;;;;;;;;;;;20.23;40.26;94315.69;1044873;28;2381;-62
2021/11/02 01:52:41;;;;;;;;;;;;;;;20.22;40.25;94315.97;1049445;28;1123;-62
2021/11/02 01:53:11;;;;;;;;;;;;;;;20.23;40.04;94315.69;1046998;28;2170;-62
2021/11/02 01:53:41;;;;;;;;;;;;;;;20.23;40.21;94323.56;1049178;28;1104;-63
2021/11/02 01:54:12;;;;;;;;;;;;;;;20.22;40.14;94316.75;1052017;28;1170;-62
2021/11/02 01:54:42;;;;;;;;;;;;;;;20.23;40.14;94318.31;1050447;28;1490;-63
2021/11/02 01:55:14;;;;;;;;;;;;;;;20.23;40.09;94322.78;1046373;28;1119;-60
2021/11/02 01:55:44;;;;;;;;;;;;;;;20.23;40.28;94317.53;1047905;28;960;-59
2021/11/02 01:56:17;;;;;;;;;;;;;;;20.23;40.05;94307.00;1048412;28;945;-60
2021/11/02 01:56:49;;;;;;;;;;;;;;;20.22;40.11;94321.22;1048962;28;1040;-60
2021/11/02 01:57:19;;;;;;;;;;;;;;;20.23;39.99;94315.69;1044749;28;1170;-59
2021/11/02 01:57:50;;;;;;;;;;;;;;;20.24;39.93;94319.06;1044995;28;1056;-61
2021/11/02 01:58:20;;;;;;;;;;;;;;;20.24;40.01;94317.22;1044255;28;2028;-59
2021/11/02 01:58:53;;;;;;;;;;;;;;;20.23;39.95;94315.69;1049020;28;1139;-60
2021/11/02 01:59:26;;;;;;;;;;;;;;;20.23;39.99;94320.94;1051462;28;1146;-62
2021/11/02 01:59:56;;;;;;;;;;;;;;;20.24;40.26;94324.31;1051444;28;2510;-62
2021/11/02 02:00:28;;;;;;;;;;;;;;;20.23;40.24;94317.53;1046679;28;1416;-60
2021/11/02 02:00:59;;;;;;;;;;;;;;;20.22;40.02;94322.00;1043728;28;1033;-61
2021/11/02 02:01:32;;;;;;;;;;;;;;;20.21;40.25;94320.47;1042001;28;1988;-62
2021/11/02 02:02:05;;;;;;;;;;;;;;;20.21;40.27;94322.31;1043777;28;1323;-61
2021/11/02 02:02:56;;;;;;;;;;;;;;;20.21;40.05;94314.44;1044347;28;1115;-62
2021/11/02 02:03:38;;;;;;;;;;;;;;;20.21;40.07;94311.78;1039049;28;1315;-62
2021/11/02 02:04:28;;;;;;;;;;;;;;;20.20;40.23;94313.66;1040513;28;1976;-61
2021/11/02 02:05:04;;;;;;;;;;;;;;;20.21;40.27;94317.06;1046426;28;2309;-60
2021/11/02 02:05:36;;;;;;;;;;;;;;;20.19;40.11;94312.09;1049252;28;1011;-62
2021/11/02 02:06:26;;;;;;;;;;;;;;;20.20;40.01;94312.88;1045202;28;1073;-60
2021/11/02 02:06:57;;;;;;;;;;;;;;;20.20;40.27;94315.50;1038763;28;1356;-62
2021/11/02 02:07:36;;;;;;;;;;;;;;;20.19;40.27;94314.75;1043640;28;1205;-60
2021/11/02 02:08:25;;;;;;;;;;;;;;;20.18;40.20;94315.78;1040867;28;1479;-59
2021/11/02 02:09:03;;;;;;;;;;;;;;;20.18;40.13;94321.03;1044078;28;1052;-62
2021/11/02 02:09:45;;;;;;;;;;;;;;;20.18;40.28;94321.03;1036620;28;1167;-62
2021/11/02 02:10:23;;;;;;;;;;;;;;;20.18;40.20;94315.00;1040248;28;1099;-62
2021/11/02 02:11:07;;;;;;;;;;;;;;;20.18;40.31;94320.25;1036328;28;1651;-61
2021/11/02 02:12:09;;;;;;;;;;;;;;;20.18;40.03;94320.25;1040471;28;1292;-62
2021/11/02 02:13:14;;;;;;;;;;;;;;;20.18;40.05;94317.63;1047486;28;942;-60
2021/11/02 02:14:09;;;;;;;;;;;;;;;20.18;40.33;94315.00;1042993;28;1485;-62
2021/11/02 02:14:42;;;;;;;;;;;;;;;20.18;40.08;94317.63;1043818;28;1995;-61
2021/11/02 02:15:16;;;;;;;;;;;;;;;20.18;40.29;94315.78;1043003;28;1587;-60
2021/11/02 02:15:46;;;;;;;;;;;;;;;20.18;40.08;94315.00;1049348;28;1075;-62
2021/11/02 02:16:37;;;;;;;;;;;;;;;20.18;40.04;94309.72;1048084;28;1071;-61
2021/11/02 02:17:09;;;;;;;;;;;;;;;20.17;40.12;94318.72;1039965;28;1616;-61
2021/11/02 02:18:05;;;;;;;;;;;;;;;20.16;40.13;94306.63;1035787;28;2412;-62
2021/11/02 02:19:03;;;;;;;;;;;;;;;20.16;40.19;94301.38;1037363;28;1316;-60
2021/11/02 02:19:43;;;;;;;;;;;;;;;20.15;40.14;94307.72;1045027;28;1096;-60
2021/11/02 02:20:23;;;;;;;;;;;;;;;20.15;40.15;94310.34;1048182;28;1742;-62
2021/11/02 02:21:16;;;;;;;;;;;;;;;20.16;40.11;94306.63;1043639;28;1135;-61
2021/11/02 02:22:25;;;;;;;;;;;;;;;20.16;40.21;94307.41;1047269;28;1355;-60
2021/11/02 02:23:31;;;;;;;;;;;;;;;20.16;40.06;94306.63;1047988;28;1824;-61
2021/11/02 02:24:08;;;;;;;;;;;;;;;20.14;40.19;94306.16;1044547;28;1977;-62
2021/11/02 02:24:53;;;;;;;;;;;;;;;20.14;40.15;94301.69;1040804;28;1384;-62
2021/11/02 02:25:33;;;;;;;;;;;;;;;20.14;39.91;94300.91;1040337;28;1652;-58
2021/11/02 02:26:28;;;;;;;;;;;;;;;20.13;40.10;94299.38;1043583;28;1090;-62
2021/11/02 02:27:19;;;;;;;;;;;;;;;20.13;40.27;94297.47;1042221;28;1048;-61
2021/11/02 02:28:18;;;;;;;;;;;;;;;20.13;40.27;94292.22;1048221;28;1067;-63
2021/11/02 02:28:59;;;;;;;;;;;;;;;20.14;40.30;94298.25;1051502;28;945;-61
2021/11/02 02:29:31;;;;;;;;;;;;;;;20.12;40.07;94295.94;1048703;28;1301;-62
2021/11/02 02:30:06;;;;;;;;;;;;;;;20.14;40.29;94293.00;1041915;28;2046;-61
2021/11/02 02:30:38;;;;;;;;;;;;;;;20.13;40.27;94296.72;1044746;28;874;-62
2021/11/02 02:31:19;;;;;;;;;;;;;;;20.13;40.32;94299.38;1043348;28;1241;-62
2021/11/02 02:31:50;;;;;;;;;;;;;;;20.12;40.21;94293.31;1036024;28;1825;-63
2021/11/02 02:32:22;;;;;;;;;;;;;;;20.13;40.36;94300.13;1036007;28;1637;-61
2021/11/02 02:32:53;;;;;;;;;;;;;;;20.13;40.35;94299.38;1038261;28;1645;-62
2021/11/02 02:33:28;;;;;;;;;;;;;;;20.13;40.31;94299.38;1040943;28;1329;-61
2021/11/02 02:33:58;;;;;;;;;;;;;;;20.13;40.21;94302.00;1040713;28;1123;-61
2021/11/02 02:34:29;;;;;;;;;;;;;;;20.13;40.23;94299.38;1035984;28;1222;-62
2021/11/02 02:35:00;;;;;;;;;;;;;;;20.12;40.20;94301.22;1031964;28;1948;-61
2021/11/02 02:35:31;;;;;;;;;;;;;;;20.12;40.21;94295.16;1036453;28;1619;-62
2021/11/02 02:36:01;;;;;;;;;;;;;;;20.12;40.23;94301.22;1036352;28;1046;-61
2021/11/02 02:36:32;;;;;;;;;;;;;;;20.12;40.15;94301.22;1041376;28;1171;-62
2021/11/02 02:37:04;;;;;;;;;;;;;;;20.11;40.23;94299.66;1042400;28;1151;-62
2021/11/02 02:37:35;;;;;;;;;;;;;;;20.12;40.22;94300.44;1043865;28;1765;-61
2021/11/02 02:38:05;;;;;;;;;;;;;;;20.12;40.06;94300.44;1052086;28;1733;-61
2021/11/02 02:38:36;;;;;;;;;;;;;;;20.12;40.04;94300.44;1048657;28;1226;-60
2021/11/02 02:39:07;;;;;;;;;;;;;;;20.11;40.20;94299.66;1049256;28;1076;-63
2021/11/02 02:39:37;;;;;;;;;;;;;;;20.11;40.08;94297.00;1042120;28;1702;-62
2021/11/02 02:40:08;;;;;;;;;;;;;;;20.10;40.16;94294.69;1038351;28;2071;-61
2021/11/02 02:40:38;;;;;;;;;;;;;;;20.11;40.42;94297.00;1044795;28;1045;-62
2021/11/02 02:41:08;;;;;;;;;;;;;;;20.10;40.33;94286.81;1044495;28;1053;-59
2021/11/02 02:41:39;;;;;;;;;;;;;;;20.09;40.11;94293.91;1043937;28;1552;-62
2021/11/02 02:42:09;;;;;;;;;;;;;;;20.10;40.33;94297.31;1048474;28;1217;-59
2021/11/02 02:42:40;;;;;;;;;;;;;;;20.09;40.27;94298.41;1044648;28;1017;-61
2021/11/02 02:43:10;;;;;;;;;;;;;;;20.10;40.33;94292.06;1044794;28;1032;-61
2021/11/02 02:43:43;;;;;;;;;;;;;;;20.09;40.10;94295.78;1042795;28;1241;-62
2021/11/02 02:44:13;;;;;;;;;;;;;;;20.10;40.29;94297.31;1040429;28;1997;-62
2021/11/02 02:44:45;;;;;;;;;;;;;;;20.10;40.14;94295.47;1038862;28;2405;-60
2021/11/02 02:45:15;;;;;;;;;;;;;;;20.09;40.26;94296.53;1034244;28;1177;-62
2021/11/02 02:45:47;;;;;;;;;;;;;;;20.09;40.23;94295.78;1036254;28;1203;-61
2021/11/02 02:46:17;;;;;;;;;;;;;;;20.09;40.24;94299.19;1038580;28;1142;-61
2021/11/02 02:46:47;;;;;;;;;;;;;;;20.09;40.07;94299.19;1045205;28;1158;-61
2021/11/02 02:47:18;;;;;;;;;;;;;;;20.09;40.23;94298.41;1048879;28;1079;-62
2021/11/02 02:47:49;;;;;;;;;;;;;;;20.09;40.03;94298.41;1048863;28;1075;-62
2021/11/02 02:48:19;;;;;;;;;;;;;;;20.08;40.11;94297.63;1047407;28;1492;-62
2021/11/02 02:48:49;;;;;;;;;;;;;;;20.08;40.07;94300.28;1046084;28;1029;-61
2021/11/02 02:49:20;;;;;;;;;;;;;;;20.09;40.26;94301.06;1049030;28;1165;-60
2021/11/02 02:49:50;;;;;;;;;;;;;;;20.09;40.24;94298.41;1050677;28;2012;-61
2021/11/02 02:50:21;;;;;;;;;;;;;;;20.09;40.30;94301.06;1048242;28;1345;-59
2021/11/02 02:50:52;;;;;;;;;;;;;;;20.09;40.15;94293.91;1047805;28;993;-61
2021/11/02 02:51:22;;;;;;;;;;;;;;;20.09;40.36;94301.06;1044586;28;1201;-59
2021/11/02 02:51:53;;;;;;;;;;;;;;;20.08;40.36;94300.28;1044809;28;1096;-61
2021/11/02 02:52:23;;;;;;;;;;;;;;;20.08;40.31;94302.13;1048699;28;1325;-63
2021/11/02 02:52:54;;;;;;;;;;;;;;;20.09;40.25;94301.06;1047870;28;1131;-62
2021/11/02 02:53:24;;;;;;;;;;;;;;;20.08;40.02;94294.22;1048875;28;1247;-60
2021/11/02 02:53:55;;;;;;;;;;;;;;;20.09;40.29;94301.06;1048774;28;1064;-61
2021/11/02 02:54:26;;;;;;;;;;;;;;;20.08;40.31;94289.75;1047886;28;1108;-61